createdAt,value
2018-05-11T00:01:58.437Z,4.70
2018-05-11T00:07:02.171Z,7.75
2018-05-11T00:12:09.708Z,3.22
2018-05-11T00:17:13.070Z,4.77
2018-05-11T00:22:16.381Z,3.37
2018-05-11T00:27:19.736Z,4.43
2018-05-11T00:32:23.190Z,6.90
2018-05-11T00:37:26.590Z,8.83
2018-05-11T00:42:29.903Z,6.10
2018-05-11T00:47:35.484Z,4.17
2018-05-11T00:52:50.041Z,6.30
2018-05-11T00:57:53.449Z,6.53
2018-05-11T01:02:57.265Z,5.63
2018-05-11T01:08:01.706Z,5.37
2018-05-11T01:13:05.366Z,5.57
2018-05-11T01:18:08.592Z,3.80
2018-05-11T01:23:12.037Z,4.95
2018-05-11T01:28:15.652Z,6.53
2018-05-11T01:33:20.438Z,7.40
2018-05-11T01:38:23.676Z,6.20
2018-05-11T01:43:27.118Z,6.63
2018-05-11T01:53:45.520Z,5.63
2018-05-11T01:58:48.912Z,4.10
2018-05-11T02:03:53.563Z,6.20
2018-05-11T02:08:57.191Z,4.53
2018-05-11T02:14:00.488Z,5.00
2018-05-11T02:19:03.714Z,4.87
2018-05-11T02:24:07.210Z,6.50
2018-05-11T02:29:10.414Z,5.73
2018-05-11T02:34:13.847Z,5.40
2018-05-11T02:39:17.160Z,7.27
2018-05-11T02:44:20.522Z,6.57
2018-05-11T02:49:24.423Z,6.27
2018-05-11T02:54:27.698Z,7.00
2018-05-11T02:59:30.933Z,6.60
2018-05-11T03:04:35.194Z,6.50
2018-05-11T03:09:38.816Z,5.53
2018-05-11T03:14:54.126Z,4.27
2018-05-11T03:19:57.393Z,5.53
2018-05-11T03:25:01.241Z,6.60
2018-05-11T03:30:04.519Z,6.87
2018-05-11T03:35:07.834Z,4.43
2018-05-11T03:40:11.440Z,4.60
2018-05-11T03:45:14.738Z,5.47
2018-05-11T03:50:17.985Z,5.27
2018-05-11T03:55:21.463Z,5.50
2018-05-11T04:00:24.774Z,6.53
2018-05-11T04:05:39.831Z,7.23
2018-05-11T04:10:43.995Z,4.13
2018-05-11T04:15:47.601Z,19.50
2018-05-11T04:20:51.336Z,6.00
2018-05-11T04:25:54.555Z,5.47
2018-05-11T04:30:57.857Z,4.47
2018-05-11T04:36:01.148Z,6.93
2018-05-11T04:41:04.789Z,7.77
2018-05-11T04:46:08.016Z,4.97
2018-05-11T04:51:11.254Z,5.43
2018-05-11T04:56:14.511Z,6.87
2018-05-11T05:01:17.724Z,5.50
2018-05-11T05:06:20.939Z,8.33
2018-05-11T05:11:24.170Z,6.07
2018-05-11T05:16:27.383Z,6.30
2018-05-11T05:21:30.621Z,6.47
2018-05-11T05:26:33.844Z,8.37
2018-05-11T05:31:37.105Z,11.37
2018-05-11T05:36:40.359Z,7.50
2018-05-11T05:41:43.596Z,6.97
2018-05-11T05:46:46.822Z,5.63
2018-05-11T05:51:50.143Z,7.13
2018-05-11T05:56:53.771Z,6.13
2018-05-11T06:01:57.050Z,7.43
2018-05-11T06:07:00.344Z,7.47
2018-05-11T06:12:03.622Z,5.43
2018-05-11T06:17:06.883Z,4.75
2018-05-11T06:22:10.531Z,6.90
2018-05-11T06:27:13.796Z,5.30
2018-05-11T06:32:17.396Z,8.10
2018-05-11T06:37:21.115Z,4.82
2018-05-11T06:42:24.352Z,8.30
2018-05-11T06:47:28.049Z,5.70
2018-05-11T06:52:31.299Z,9.80
2018-05-11T06:57:34.535Z,5.55
2018-05-11T07:02:37.869Z,6.32
2018-05-11T07:07:41.140Z,5.03
2018-05-11T07:12:44.423Z,6.22
2018-05-11T07:17:47.669Z,7.55
2018-05-11T07:22:50.951Z,10.52
2018-05-11T07:27:54.184Z,8.40
2018-05-11T07:32:57.416Z,9.15
2018-05-11T07:38:01.826Z,9.57
2018-05-11T07:43:05.145Z,8.52
2018-05-11T07:48:08.457Z,8.27
2018-05-11T07:53:11.678Z,7.03
2018-05-11T07:58:15.305Z,10.43
2018-05-11T08:03:18.520Z,7.62
2018-05-11T08:08:21.891Z,8.00
2018-05-11T08:13:25.116Z,10.63
2018-05-11T08:18:28.743Z,7.85
2018-05-11T08:23:31.970Z,8.52
2018-05-11T08:28:35.328Z,9.80
2018-05-11T08:33:38.571Z,8.15
2018-05-11T08:38:41.813Z,9.52
2018-05-11T08:43:45.075Z,10.75
2018-05-11T08:48:48.372Z,6.62
2018-05-11T08:53:51.987Z,10.10
2018-05-11T08:58:55.689Z,8.27
2018-05-11T09:03:59.441Z,9.00
2018-05-11T09:09:02.668Z,9.70
2018-05-11T09:14:05.955Z,9.13
2018-05-11T09:19:09.192Z,7.57
2018-05-11T09:24:12.440Z,9.57
2018-05-11T09:29:16.065Z,7.50
2018-05-11T09:34:19.685Z,9.48
2018-05-11T09:39:22.939Z,11.23
2018-05-11T09:44:26.196Z,10.63
2018-05-11T09:49:29.519Z,11.57
2018-05-11T09:54:32.693Z,11.27
2018-05-11T09:59:36.335Z,9.80
2018-05-11T10:04:39.622Z,9.27
2018-05-11T10:09:43.256Z,11.57
2018-05-11T10:14:46.505Z,11.95
2018-05-11T10:19:49.732Z,10.32
2018-05-11T10:24:52.963Z,11.07
2018-05-11T10:29:56.672Z,9.88
2018-05-11T10:35:00.294Z,8.15
2018-05-11T10:40:03.943Z,10.48
2018-05-11T10:45:07.167Z,10.18
2018-05-11T10:50:10.381Z,9.88
2018-05-11T10:55:13.744Z,10.90
2018-05-11T11:00:16.970Z,10.93
2018-05-11T11:05:20.190Z,10.25
2018-05-11T11:10:23.398Z,8.38
2018-05-11T11:15:26.620Z,10.02
2018-05-11T11:20:29.854Z,11.32
2018-05-11T11:25:33.487Z,11.50
2018-05-11T11:30:36.715Z,12.90
2018-05-11T11:35:40.141Z,11.85
2018-05-11T11:40:43.487Z,10.55
2018-05-11T11:45:47.137Z,14.25
2018-05-11T11:50:50.376Z,11.90
2018-05-11T11:55:53.705Z,11.55
2018-05-11T12:00:56.921Z,11.02
2018-05-11T12:06:00.645Z,10.32
2018-05-11T12:11:04.286Z,10.77
2018-05-11T12:16:07.511Z,7.60
2018-05-11T12:21:10.734Z,9.02
2018-05-11T12:26:14.946Z,10.80
2018-05-11T12:31:18.163Z,10.25
2018-05-11T12:36:21.506Z,8.45
2018-05-11T12:41:25.217Z,10.02
2018-05-11T12:46:28.931Z,10.60
2018-05-11T12:51:32.164Z,10.07
2018-05-11T12:56:35.413Z,10.55
2018-05-11T13:01:39.064Z,10.38
2018-05-11T13:06:42.782Z,7.72
2018-05-11T13:11:46.512Z,11.52
2018-05-11T13:16:50.150Z,10.95
2018-05-11T13:21:53.375Z,8.32
2018-05-11T13:26:56.602Z,10.80
2018-05-11T13:32:00.437Z,9.15
2018-05-11T13:37:03.693Z,10.43
2018-05-11T13:42:07.002Z,10.35
2018-05-11T13:47:10.236Z,13.62
2018-05-11T13:52:13.453Z,8.65
2018-05-11T13:57:16.682Z,9.70
2018-05-11T14:02:20.378Z,10.82
2018-05-11T14:07:23.603Z,10.85
2018-05-11T14:12:27.499Z,10.02
2018-05-11T14:17:30.749Z,11.77
2018-05-11T14:22:33.976Z,12.68
2018-05-11T14:27:37.441Z,10.32
2018-05-11T14:32:41.080Z,10.18
2018-05-11T14:37:44.553Z,10.43
2018-05-11T14:42:47.771Z,10.02
2018-05-11T14:47:51.104Z,10.27
2018-05-11T14:52:54.326Z,10.57
2018-05-11T14:57:57.604Z,11.75
2018-05-11T15:03:01.309Z,8.82
2018-05-11T15:08:06.465Z,8.93
2018-05-11T15:13:10.297Z,9.18
2018-05-11T15:18:13.922Z,10.45
2018-05-11T15:23:17.157Z,9.48
2018-05-11T15:28:20.390Z,9.25
2018-05-11T15:33:23.736Z,9.93
2018-05-11T15:38:27.355Z,10.27
2018-05-11T15:43:30.622Z,12.25
2018-05-11T15:48:34.433Z,8.20
2018-05-11T15:53:37.659Z,10.38
2018-05-11T15:58:40.968Z,12.88
2018-05-11T16:03:44.378Z,10.23
2018-05-11T16:08:48.017Z,10.70
2018-05-11T16:13:51.299Z,11.32
2018-05-11T16:18:54.536Z,11.88
2018-05-11T16:23:57.790Z,9.45
2018-05-11T16:29:01.015Z,9.27
2018-05-11T16:34:04.389Z,9.13
2018-05-11T16:39:07.754Z,9.77
2018-05-11T16:44:11.371Z,8.63
2018-05-11T16:49:14.593Z,8.85
2018-05-11T16:54:17.831Z,9.95
2018-05-11T16:59:21.180Z,8.40
2018-05-11T17:04:24.445Z,8.57
2018-05-11T17:09:27.784Z,10.32
2018-05-11T17:14:31.597Z,9.98
2018-05-11T17:19:35.312Z,8.43
2018-05-11T17:24:38.951Z,7.07
2018-05-11T17:29:42.188Z,8.85
2018-05-11T17:34:45.541Z,9.07
2018-05-11T17:39:48.949Z,7.72
2018-05-11T17:44:52.359Z,9.23
2018-05-11T17:49:55.946Z,7.18
2018-05-11T17:54:59.224Z,9.52
2018-05-11T18:00:02.461Z,7.57
2018-05-11T18:05:05.911Z,6.15
2018-05-11T18:10:09.656Z,7.00
2018-05-11T18:15:13.253Z,7.45
2018-05-11T18:20:16.842Z,7.60
2018-05-11T18:25:20.476Z,7.45
2018-05-11T18:30:24.099Z,7.85
2018-05-11T18:35:27.329Z,6.70
2018-05-11T18:40:30.575Z,5.93
2018-05-11T18:45:33.821Z,6.40
2018-05-11T18:50:37.073Z,6.55
2018-05-11T18:55:40.323Z,6.50
2018-05-11T19:00:43.972Z,7.60
2018-05-11T19:05:47.206Z,7.85
2018-05-11T19:10:50.445Z,9.18
2018-05-11T19:15:54.826Z,7.70
2018-05-11T19:20:58.068Z,5.78
2018-05-11T19:26:01.700Z,6.40
2018-05-11T19:31:04.960Z,6.10
2018-05-11T19:36:08.206Z,9.57
2018-05-11T19:41:11.606Z,10.20
2018-05-11T19:46:15.015Z,7.50
2018-05-11T19:51:18.639Z,9.30
2018-05-11T19:56:22.251Z,9.18
2018-05-11T20:01:25.962Z,11.12
2018-05-11T20:06:29.244Z,8.43
2018-05-11T20:11:32.574Z,7.97
2018-05-11T20:16:36.377Z,9.27
2018-05-11T20:21:39.597Z,9.18
2018-05-11T20:26:43.245Z,10.68
2018-05-11T20:31:46.509Z,12.55
2018-05-11T20:36:49.735Z,10.23
2018-05-11T20:41:53.007Z,11.18
2018-05-11T20:46:56.286Z,8.85
2018-05-11T20:51:59.500Z,10.48
2018-05-11T20:57:03.889Z,11.07
2018-05-11T21:02:07.561Z,9.05
2018-05-11T21:07:10.821Z,13.43
2018-05-11T21:12:14.438Z,14.23
2018-05-11T21:17:18.165Z,12.55
2018-05-11T21:22:21.419Z,12.15
2018-05-11T21:27:24.853Z,16.25
2018-05-11T21:32:28.493Z,15.77
2018-05-11T21:37:32.185Z,15.35
2018-05-11T21:42:35.507Z,13.80
2018-05-11T21:47:39.328Z,15.40
2018-05-11T21:52:43.164Z,16.12
2018-05-11T21:57:46.923Z,14.85
2018-05-11T22:02:50.420Z,13.80
2018-05-11T22:07:56.006Z,16.85
2018-05-11T22:12:59.291Z,14.27
2018-05-11T22:18:02.689Z,17.42
2018-05-11T22:23:05.973Z,15.25
2018-05-11T22:28:09.201Z,14.52
2018-05-11T22:33:12.569Z,16.35
2018-05-11T22:38:16.517Z,15.70
2018-05-11T22:43:19.765Z,17.55
2018-05-11T22:48:24.327Z,16.85
2018-05-11T22:53:28.106Z,15.38
2018-05-11T22:58:31.384Z,16.23
2018-05-11T23:03:34.853Z,18.77
2018-05-11T23:08:38.075Z,18.15
2018-05-11T23:13:41.718Z,14.77
2018-05-11T23:18:45.624Z,17.10
2018-05-11T23:23:49.431Z,13.77
2018-05-11T23:28:53.050Z,20.85
2018-05-11T23:33:56.684Z,15.48
2018-05-11T23:38:59.964Z,16.73
2018-05-11T23:44:04.310Z,18.48
2018-05-11T23:49:08.645Z,18.20
2018-05-11T23:54:12.450Z,16.48
2018-05-11T23:59:16.164Z,15.75
